sensor_id;sensor_type;location;lat;lon;timestamp;pressure;altitude;pressure_sealevel;temperature;humidity
31483;BME280;18103;52.246;8.052;2023-04-29T00:02:05;99943.81;;;11.75;87.00
31483;BME280;18103;52.246;8.052;2023-04-29T00:04:31;99945.31;;;11.78;86.99
31483;BME280;18103;52.246;8.052;2023-04-29T00:06:56;99943.94;;;11.64;87.69
31483;BME280;18103;52.246;8.052;2023-04-29T00:09:24;99948.66;;;11.60;87.91
31483;BME280;18103;52.246;8.052;2023-04-29T00:11:50;99943.22;;;11.62;87.58
31483;BME280;18103;52.246;8.052;2023-04-29T00:14:15;99949.22;;;11.64;87.51
31483;BME280;18103;52.246;8.052;2023-04-29T00:16:41;99945.59;;;11.65;87.34
31483;BME280;18103;52.246;8.052;2023-04-29T00:19:06;99948.06;;;11.47;88.04
31483;BME280;18103;52.246;8.052;2023-04-29T00:21:32;99955.75;;;11.50;87.90
31483;BME280;18103;52.246;8.052;2023-04-29T00:23:57;99954.75;;;11.51;87.65
31483;BME280;18103;52.246;8.052;2023-04-29T00:26:25;99951.13;;;11.42;87.82
31483;BME280;18103;52.246;8.052;2023-04-29T00:28:57;99955.72;;;11.40;87.72
31483;BME280;18103;52.246;8.052;2023-04-29T00:31:25;99958.91;;;11.44;87.45
31483;BME280;18103;52.246;8.052;2023-04-29T00:33:53;99967.78;;;11.33;88.20
31483;BME280;18103;52.246;8.052;2023-04-29T00:36:18;99968.06;;;11.40;88.13
31483;BME280;18103;52.246;8.052;2023-04-29T00:38:48;99978.09;;;11.36;88.60
31483;BME280;18103;52.246;8.052;2023-04-29T00:41:13;99975.44;;;11.36;88.15
31483;BME280;18103;52.246;8.052;2023-04-29T00:43:39;99976.69;;;11.32;88.50
31483;BME280;18103;52.246;8.052;2023-04-29T00:46:06;99979.75;;;11.37;88.87
31483;BME280;18103;52.246;8.052;2023-04-29T00:48:32;99977.34;;;11.24;88.86
31483;BME280;18103;52.246;8.052;2023-04-29T00:50:57;99988.00;;;11.13;89.13
31483;BME280;18103;52.246;8.052;2023-04-29T00:53:25;99995.94;;;11.13;89.09
31483;BME280;18103;52.246;8.052;2023-04-29T00:55:51;99996.25;;;11.20;89.08
31483;BME280;18103;52.246;8.052;2023-04-29T00:58:17;99995.91;;;11.03;89.63
31483;BME280;18103;52.246;8.052;2023-04-29T01:00:46;99998.44;;;11.15;89.09
31483;BME280;18103;52.246;8.052;2023-04-29T01:03:14;100002.94;;;11.24;88.81
31483;BME280;18103;52.246;8.052;2023-04-29T01:05:44;99997.44;;;11.06;89.78
31483;BME280;18103;52.246;8.052;2023-04-29T01:11:07;100006.91;;;11.08;89.36
31483;BME280;18103;52.246;8.052;2023-04-29T01:13:50;100013.59;;;11.12;88.95
31483;BME280;18103;52.246;8.052;2023-04-29T01:16:24;100009.88;;;11.15;89.28
31483;BME280;18103;52.246;8.052;2023-04-29T01:18:56;100025.72;;;11.15;88.59
31483;BME280;18103;52.246;8.052;2023-04-29T01:21:23;100013.56;;;11.03;89.44
31483;BME280;18103;52.246;8.052;2023-04-29T01:23:52;100030.59;;;10.89;89.92
31483;BME280;18103;52.246;8.052;2023-04-29T01:26:21;100025.63;;;10.95;89.77
31483;BME280;18103;52.246;8.052;2023-04-29T01:34:17;100028.56;;;11.02;89.22
31483;BME280;18103;52.246;8.052;2023-04-29T01:36:52;100034.22;;;10.98;89.57
31483;BME280;18103;52.246;8.052;2023-04-29T01:42:07;100031.22;;;10.81;90.64
31483;BME280;18103;52.246;8.052;2023-04-29T01:44:35;100039.88;;;10.83;90.17
31483;BME280;18103;52.246;8.052;2023-04-29T01:47:02;100047.38;;;10.88;90.14
31483;BME280;18103;52.246;8.052;2023-04-29T01:49:27;100047.38;;;10.88;90.17
31483;BME280;18103;52.246;8.052;2023-04-29T01:51:56;100045.28;;;10.82;90.45
31483;BME280;18103;52.246;8.052;2023-04-29T01:54:23;100050.97;;;10.87;90.36
31483;BME280;18103;52.246;8.052;2023-04-29T01:56:49;100053.63;;;10.87;90.12
31483;BME280;18103;52.246;8.052;2023-04-29T01:59:17;100050.41;;;10.83;90.23
31483;BME280;18103;52.246;8.052;2023-04-29T02:01:42;100056.66;;;10.82;90.22
31483;BME280;18103;52.246;8.052;2023-04-29T02:04:08;100065.59;;;10.91;89.84
31483;BME280;18103;52.246;8.052;2023-04-29T02:06:35;100065.34;;;10.94;89.95
31483;BME280;18103;52.246;8.052;2023-04-29T02:09:01;100057.50;;;10.83;90.08
31483;BME280;18103;52.246;8.052;2023-04-29T02:11:26;100065.59;;;10.91;90.12
31483;BME280;18103;52.246;8.052;2023-04-29T02:13:52;100061.88;;;10.93;89.94
31483;BME280;18103;52.246;8.052;2023-04-29T02:16:18;100066.13;;;10.85;90.32
31483;BME280;18103;52.246;8.052;2023-04-29T02:18:46;100067.41;;;10.90;90.04
31483;BME280;18103;52.246;8.052;2023-04-29T02:21:11;100075.84;;;10.84;90.56
31483;BME280;18103;52.246;8.052;2023-04-29T02:23:37;100078.75;;;10.81;90.51
31483;BME280;18103;52.246;8.052;2023-04-29T02:26:02;100076.63;;;10.75;90.99
31483;BME280;18103;52.246;8.052;2023-04-29T02:28:36;100079.19;;;10.86;90.41
31483;BME280;18103;52.246;8.052;2023-04-29T02:31:02;100077.91;;;10.81;90.16
31483;BME280;18103;52.246;8.052;2023-04-29T02:33:27;100090.97;;;10.82;90.53
31483;BME280;18103;52.246;8.052;2023-04-29T02:35:53;100098.50;;;10.87;90.07
31483;BME280;18103;52.246;8.052;2023-04-29T02:38:22;100094.66;;;10.91;89.95
31483;BME280;18103;52.246;8.052;2023-04-29T02:40:48;100100.25;;;10.76;90.52
31483;BME280;18103;52.246;8.052;2023-04-29T02:43:14;100099.72;;;10.83;90.67
31483;BME280;18103;52.246;8.052;2023-04-29T02:45:39;100101.41;;;10.84;90.05
31483;BME280;18103;52.246;8.052;2023-04-29T02:48:05;100105.88;;;10.83;90.04
31483;BME280;18103;52.246;8.052;2023-04-29T02:50:31;100098.13;;;10.70;90.82
31483;BME280;18103;52.246;8.052;2023-04-29T02:52:57;100110.16;;;10.63;91.12
31483;BME280;18103;52.246;8.052;2023-04-29T02:55:27;100113.00;;;10.71;90.73
31483;BME280;18103;52.246;8.052;2023-04-29T02:57:55;100108.69;;;10.70;90.45
31483;BME280;18103;52.246;8.052;2023-04-29T03:00:20;100112.91;;;10.61;90.95
31483;BME280;18103;52.246;8.052;2023-04-29T03:02:49;100121.22;;;10.57;91.12
31483;BME280;18103;52.246;8.052;2023-04-29T03:05:14;100120.41;;;10.56;90.98
31483;BME280;18103;52.246;8.052;2023-04-29T03:07:39;100122.53;;;10.63;90.68
31483;BME280;18103;52.246;8.052;2023-04-29T03:10:08;100121.69;;;10.62;90.54
31483;BME280;18103;52.246;8.052;2023-04-29T03:12:34;100119.28;;;10.59;90.95
31483;BME280;18103;52.246;8.052;2023-04-29T03:14:59;100127.94;;;10.61;90.93
31483;BME280;18103;52.246;8.052;2023-04-29T03:17:27;100128.53;;;10.53;91.44
31483;BME280;18103;52.246;8.052;2023-04-29T03:19:52;100132.72;;;10.56;90.50
31483;BME280;18103;52.246;8.052;2023-04-29T03:22:21;100135.38;;;10.56;90.84
31483;BME280;18103;52.246;8.052;2023-04-29T03:24:50;100131.31;;;10.52;90.60
31483;BME280;18103;52.246;8.052;2023-04-29T03:27:16;100141.28;;;10.48;91.04
31483;BME280;18103;52.246;8.052;2023-04-29T03:29:41;100140.31;;;10.49;90.77
31483;BME280;18103;52.246;8.052;2023-04-29T03:32:07;100143.31;;;10.44;90.67
31483;BME280;18103;52.246;8.052;2023-04-29T03:34:32;100143.59;;;10.41;91.03
31483;BME280;18103;52.246;8.052;2023-04-29T03:36:58;100147.66;;;10.46;90.72
31483;BME280;18103;52.246;8.052;2023-04-29T03:39:26;100154.00;;;10.43;90.63
31483;BME280;18103;52.246;8.052;2023-04-29T03:42:01;100157.16;;;10.37;90.82
31483;BME280;18103;52.246;8.052;2023-04-29T03:44:29;100160.88;;;10.34;91.00
31483;BME280;18103;52.246;8.052;2023-04-29T03:46:57;100153.88;;;10.33;90.92
31483;BME280;18103;52.246;8.052;2023-04-29T03:49:22;100161.31;;;10.28;90.98
31483;BME280;18103;52.246;8.052;2023-04-29T03:51:48;100166.38;;;10.31;91.12
31483;BME280;18103;52.246;8.052;2023-04-29T03:54:15;100164.56;;;10.32;91.08
31483;BME280;18103;52.246;8.052;2023-04-29T03:56:43;100162.66;;;10.22;91.44
31483;BME280;18103;52.246;8.052;2023-04-29T03:59:08;100163.63;;;10.21;91.30
31483;BME280;18103;52.246;8.052;2023-04-29T04:01:34;100177.03;;;10.30;90.92
31483;BME280;18103;52.246;8.052;2023-04-29T04:03:59;100174.50;;;10.28;90.83
31483;BME280;18103;52.246;8.052;2023-04-29T04:06:25;100174.16;;;10.33;90.60
31483;BME280;18103;52.246;8.052;2023-04-29T04:08:52;100178.84;;;10.29;90.71
31483;BME280;18103;52.246;8.052;2023-04-29T04:11:20;100188.19;;;10.33;91.19
31483;BME280;18103;52.246;8.052;2023-04-29T04:13:45;100191.06;;;10.30;90.74
31483;BME280;18103;52.246;8.052;2023-04-29T04:16:11;100194.19;;;10.24;90.85
31483;BME280;18103;52.246;8.052;2023-04-29T04:18:37;100191.09;;;10.19;90.98
31483;BME280;18103;52.246;8.052;2023-04-29T04:21:09;100198.88;;;10.20;90.95
31483;BME280;18103;52.246;8.052;2023-04-29T04:23:35;100201.03;;;10.26;90.41
31483;BME280;18103;52.246;8.052;2023-04-29T04:26:01;100211.44;;;10.28;90.79
31483;BME280;18103;52.246;8.052;2023-04-29T04:28:26;100211.59;;;10.15;90.88
31483;BME280;18103;52.246;8.052;2023-04-29T04:30:51;100216.59;;;10.30;91.06
31483;BME280;18103;52.246;8.052;2023-04-29T04:33:19;100220.59;;;10.35;90.42
31483;BME280;18103;52.246;8.052;2023-04-29T04:35:44;100216.84;;;10.15;90.77
31483;BME280;18103;52.246;8.052;2023-04-29T04:38:10;100228.16;;;10.17;90.77
31483;BME280;18103;52.246;8.052;2023-04-29T04:40:42;100222.63;;;10.20;90.63
31483;BME280;18103;52.246;8.052;2023-04-29T04:43:10;100236.63;;;10.21;91.00
31483;BME280;18103;52.246;8.052;2023-04-29T04:45:35;100228.03;;;10.19;90.87
31483;BME280;18103;52.246;8.052;2023-04-29T04:48:01;100233.41;;;10.17;90.65
31483;BME280;18103;52.246;8.052;2023-04-29T04:50:27;100241.91;;;10.21;91.08
31483;BME280;18103;52.246;8.052;2023-04-29T04:52:56;100243.00;;;10.18;90.73
31483;BME280;18103;52.246;8.052;2023-04-29T04:55:24;100249.59;;;10.24;90.86
31483;BME280;18103;52.246;8.052;2023-04-29T04:57:54;100252.59;;;10.19;91.02
31483;BME280;18103;52.246;8.052;2023-04-29T05:00:19;100256.41;;;10.15;91.14
31483;BME280;18103;52.246;8.052;2023-04-29T05:02:44;100258.22;;;10.15;91.12
31483;BME280;18103;52.246;8.052;2023-04-29T05:05:10;100267.72;;;10.17;91.04
31483;BME280;18103;52.246;8.052;2023-04-29T05:07:35;100261.56;;;10.17;91.40
31483;BME280;18103;52.246;8.052;2023-04-29T05:10:01;100273.19;;;10.14;91.16
31483;BME280;18103;52.246;8.052;2023-04-29T05:12:27;100270.34;;;10.17;91.19
31483;BME280;18103;52.246;8.052;2023-04-29T05:14:55;100280.91;;;10.17;90.96
31483;BME280;18103;52.246;8.052;2023-04-29T05:17:21;100276.19;;;10.21;90.93
31483;BME280;18103;52.246;8.052;2023-04-29T05:19:46;100278.47;;;10.14;91.31
31483;BME280;18103;52.246;8.052;2023-04-29T05:22:11;100281.72;;;10.18;91.22
31483;BME280;18103;52.246;8.052;2023-04-29T05:24:37;100286.75;;;10.21;91.19
31483;BME280;18103;52.246;8.052;2023-04-29T05:27:02;100281.97;;;10.26;90.41
31483;BME280;18103;52.246;8.052;2023-04-29T05:29:28;100292.53;;;10.26;90.47
31483;BME280;18103;52.246;8.052;2023-04-29T05:31:53;100290.00;;;10.24;90.51
31483;BME280;18103;52.246;8.052;2023-04-29T05:34:24;100292.53;;;10.26;90.79
31483;BME280;18103;52.246;8.052;2023-04-29T05:36:50;100293.09;;;10.30;90.52
31483;BME280;18103;52.246;8.052;2023-04-29T05:39:18;100295.44;;;10.34;90.25
31483;BME280;18103;52.246;8.052;2023-04-29T05:41:43;100296.13;;;10.25;90.68
31483;BME280;18103;52.246;8.052;2023-04-29T05:44:11;100305.34;;;10.31;91.17
31483;BME280;18103;52.246;8.052;2023-04-29T05:46:36;100310.50;;;10.32;90.55
31483;BME280;18103;52.246;8.052;2023-04-29T05:49:04;100316.75;;;10.31;90.66
31483;BME280;18103;52.246;8.052;2023-04-29T05:51:30;100323.34;;;10.25;90.93
31483;BME280;18103;52.246;8.052;2023-04-29T05:53:58;100325.13;;;10.25;90.63
31483;BME280;18103;52.246;8.052;2023-04-29T05:56:26;100332.81;;;10.28;90.40
31483;BME280;18103;52.246;8.052;2023-04-29T05:58:57;100343.84;;;10.22;90.76
31483;BME280;18103;52.246;8.052;2023-04-29T06:01:22;100331.97;;;10.16;90.67
31483;BME280;18103;52.246;8.052;2023-04-29T06:03:50;100334.72;;;10.15;90.66
31483;BME280;18103;52.246;8.052;2023-04-29T06:06:15;100339.38;;;10.11;90.63
31483;BME280;18103;52.246;8.052;2023-04-29T06:08:43;100347.06;;;10.14;90.68
31483;BME280;18103;52.246;8.052;2023-04-29T06:11:08;100347.16;;;10.13;90.76
31483;BME280;18103;52.246;8.052;2023-04-29T06:13:34;100350.88;;;10.10;90.78
31483;BME280;18103;52.246;8.052;2023-04-29T06:15:59;100365.75;;;10.11;90.66
31483;BME280;18103;52.246;8.052;2023-04-29T06:18:25;100366.25;;;10.16;90.27
31483;BME280;18103;52.246;8.052;2023-04-29T06:20:50;100364.69;;;10.14;90.25
31483;BME280;18103;52.246;8.052;2023-04-29T06:23:18;100377.50;;;10.18;90.39
31483;BME280;18103;52.246;8.052;2023-04-29T06:25:46;100384.47;;;10.19;90.64
31483;BME280;18103;52.246;8.052;2023-04-29T06:28:11;100383.97;;;10.14;90.59
31483;BME280;18103;52.246;8.052;2023-04-29T06:30:36;100395.50;;;10.13;90.06
31483;BME280;18103;52.246;8.052;2023-04-29T06:33:02;100389.03;;;10.17;90.06
31483;BME280;18103;52.246;8.052;2023-04-29T06:35:30;100396.34;;;10.14;90.57
31483;BME280;18103;52.246;8.052;2023-04-29T06:37:55;100397.06;;;10.16;90.33
31483;BME280;18103;52.246;8.052;2023-04-29T06:40:20;100405.97;;;10.26;89.97
31483;BME280;18103;52.246;8.052;2023-04-29T06:42:46;100402.84;;;10.32;89.70
31483;BME280;18103;52.246;8.052;2023-04-29T06:45:11;100408.22;;;10.31;89.76
31483;BME280;18103;52.246;8.052;2023-04-29T06:47:41;100412.34;;;10.35;89.94
31483;BME280;18103;52.246;8.052;2023-04-29T06:50:09;100412.97;;;10.50;89.54
31483;BME280;18103;52.246;8.052;2023-04-29T06:52:39;100411.66;;;10.44;89.95
31483;BME280;18103;52.246;8.052;2023-04-29T06:55:07;100415.88;;;10.47;89.81
31483;BME280;18103;52.246;8.052;2023-04-29T06:57:32;100421.72;;;10.50;89.14
31483;BME280;18103;52.246;8.052;2023-04-29T06:59:58;100426.75;;;10.53;88.96
31483;BME280;18103;52.246;8.052;2023-04-29T07:02:23;100426.31;;;10.48;89.25
31483;BME280;18103;52.246;8.052;2023-04-29T07:04:51;100424.50;;;10.49;89.10
31483;BME280;18103;52.246;8.052;2023-04-29T07:07:17;100429.06;;;10.58;88.61
31483;BME280;18103;52.246;8.052;2023-04-29T07:09:47;100428.34;;;10.67;88.91
31483;BME280;18103;52.246;8.052;2023-04-29T07:12:15;100428.84;;;10.72;88.73
31483;BME280;18103;52.246;8.052;2023-04-29T07:14:41;100438.31;;;10.86;88.27
31483;BME280;18103;52.246;8.052;2023-04-29T07:17:07;100439.16;;;10.75;88.27
31483;BME280;18103;52.246;8.052;2023-04-29T07:19:35;100448.50;;;10.91;87.49
31483;BME280;18103;52.246;8.052;2023-04-29T07:22:03;100443.47;;;10.99;87.87
31483;BME280;18103;52.246;8.052;2023-04-29T07:24:28;100449.00;;;10.96;87.63
31483;BME280;18103;52.246;8.052;2023-04-29T07:26:53;100456.91;;;10.96;86.73
31483;BME280;18103;52.246;8.052;2023-04-29T07:29:21;100468.81;;;10.90;87.68
31483;BME280;18103;52.246;8.052;2023-04-29T07:31:49;100471.19;;;10.93;87.43
31483;BME280;18103;52.246;8.052;2023-04-29T07:34:16;100483.34;;;10.85;87.06
31483;BME280;18103;52.246;8.052;2023-04-29T07:36:42;100484.03;;;10.87;86.63
31483;BME280;18103;52.246;8.052;2023-04-29T07:39:10;100492.94;;;10.97;86.19
31483;BME280;18103;52.246;8.052;2023-04-29T07:41:36;100489.09;;;11.01;86.09
31483;BME280;18103;52.246;8.052;2023-04-29T07:44:01;100491.25;;;10.96;86.17
31483;BME280;18103;52.246;8.052;2023-04-29T07:46:27;100487.53;;;10.99;85.52
31483;BME280;18103;52.246;8.052;2023-04-29T07:48:52;100497.25;;;10.98;85.12
31483;BME280;18103;52.246;8.052;2023-04-29T07:51:18;100497.25;;;10.98;85.59
31483;BME280;18103;52.246;8.052;2023-04-29T07:53:43;100508.19;;;11.05;85.44
31483;BME280;18103;52.246;8.052;2023-04-29T07:56:09;100506.84;;;11.22;84.81
31483;BME280;18103;52.246;8.052;2023-04-29T07:58:34;100515.75;;;11.21;85.49
31483;BME280;18103;52.246;8.052;2023-04-29T08:01:09;100517.44;;;11.10;85.15
31483;BME280;18103;52.246;8.052;2023-04-29T08:03:36;100523.31;;;11.14;85.66
31483;BME280;18103;52.246;8.052;2023-04-29T08:06:02;100525.47;;;11.32;85.06
31483;BME280;18103;52.246;8.052;2023-04-29T08:08:30;100527.53;;;11.28;85.18
31483;BME280;18103;52.246;8.052;2023-04-29T08:10:56;100532.19;;;11.36;84.65
31483;BME280;18103;52.246;8.052;2023-04-29T08:13:22;100534.00;;;11.35;84.77
31483;BME280;18103;52.246;8.052;2023-04-29T08:15:50;100537.13;;;11.40;84.70
31483;BME280;18103;52.246;8.052;2023-04-29T08:18:20;100534.13;;;11.34;84.93
31483;BME280;18103;52.246;8.052;2023-04-29T08:20:50;100540.13;;;11.47;84.46
31483;BME280;18103;52.246;8.052;2023-04-29T08:23:15;100545.88;;;11.52;85.46
31483;BME280;18103;52.246;8.052;2023-04-29T08:25:45;100545.63;;;11.55;85.10
31483;BME280;18103;52.246;8.052;2023-04-29T08:28:18;100543.75;;;11.46;84.54
31483;BME280;18103;52.246;8.052;2023-04-29T08:30:43;100557.50;;;11.72;83.62
31483;BME280;18103;52.246;8.052;2023-04-29T08:33:11;100552.44;;;11.80;83.50
31483;BME280;18103;52.246;8.052;2023-04-29T08:35:39;100562.81;;;11.61;84.09
31483;BME280;18103;52.246;8.052;2023-04-29T08:38:08;100566.78;;;11.67;83.82
31483;BME280;18103;52.246;8.052;2023-04-29T08:40:43;100568.34;;;11.69;83.82
31483;BME280;18103;52.246;8.052;2023-04-29T08:43:15;100565.66;;;11.80;83.90
31483;BME280;18103;52.246;8.052;2023-04-29T08:45:42;100573.84;;;11.89;83.80
31483;BME280;18103;52.246;8.052;2023-04-29T08:48:08;100568.81;;;11.74;82.93
31483;BME280;18103;52.246;8.052;2023-04-29T08:50:37;100576.03;;;11.84;82.98
31483;BME280;18103;52.246;8.052;2023-04-29T08:53:06;100587.31;;;11.97;82.78
31483;BME280;18103;52.246;8.052;2023-04-29T08:55:35;100588.63;;;12.03;82.81
31483;BME280;18103;52.246;8.052;2023-04-29T08:58:03;100582.72;;;12.10;82.31
31483;BME280;18103;52.246;8.052;2023-04-29T09:00:32;100583.66;;;12.21;81.37
31483;BME280;18103;52.246;8.052;2023-04-29T09:03:14;100581.97;;;12.20;81.07
31483;BME280;18103;52.246;8.052;2023-04-29T09:05:42;100590.47;;;12.35;81.44
31483;BME280;18103;52.246;8.052;2023-04-29T09:08:12;100591.56;;;12.32;81.52
31483;BME280;18103;52.246;8.052;2023-04-29T09:10:41;100587.94;;;12.33;80.41
31483;BME280;18103;52.246;8.052;2023-04-29T09:13:30;100592.81;;;12.49;80.16
31483;BME280;18103;52.246;8.052;2023-04-29T09:15:58;100593.66;;;12.49;80.22
31483;BME280;18103;52.246;8.052;2023-04-29T09:21:20;100597.09;;;13.04;80.46
31483;BME280;18103;52.246;8.052;2023-04-29T09:23:53;100590.25;;;12.80;79.46
31483;BME280;18103;52.246;8.052;2023-04-29T09:26:21;100596.59;;;12.89;78.85
31483;BME280;18103;52.246;8.052;2023-04-29T09:29:07;100601.50;;;12.93;78.64
31483;BME280;18103;52.246;8.052;2023-04-29T09:31:33;100607.81;;;13.02;78.33
31483;BME280;18103;52.246;8.052;2023-04-29T09:34:01;100599.44;;;12.97;77.73
31483;BME280;18103;52.246;8.052;2023-04-29T09:36:50;100610.47;;;13.02;77.12
31483;BME280;18103;52.246;8.052;2023-04-29T09:39:20;100610.63;;;13.31;77.16
31483;BME280;18103;52.246;8.052;2023-04-29T09:44:26;100607.66;;;13.36;76.07
31483;BME280;18103;52.246;8.052;2023-04-29T09:46:59;100615.50;;;13.47;75.56
31483;BME280;18103;52.246;8.052;2023-04-29T09:49:29;100615.22;;;13.81;75.82
31483;BME280;18103;52.246;8.052;2023-04-29T09:51:56;100620.06;;;13.76;72.45
31483;BME280;18103;52.246;8.052;2023-04-29T09:54:27;100616.66;;;13.95;73.45
31483;BME280;18103;52.246;8.052;2023-04-29T09:56:57;100624.50;;;14.07;73.69
31483;BME280;18103;52.246;8.052;2023-04-29T09:59:23;100632.16;;;14.00;74.07
31483;BME280;18103;52.246;8.052;2023-04-29T10:01:56;100633.53;;;13.94;73.68
31483;BME280;18103;52.246;8.052;2023-04-29T10:04:26;100640.09;;;13.90;73.02
31483;BME280;18103;52.246;8.052;2023-04-29T10:06:54;100638.19;;;14.02;72.80
31483;BME280;18103;52.246;8.052;2023-04-29T10:09:21;100642.78;;;14.00;72.47
31483;BME280;18103;52.246;8.052;2023-04-29T10:11:49;100641.34;;;13.86;72.94
31483;BME280;18103;52.246;8.052;2023-04-29T10:14:23;100645.28;;;14.01;72.04
31483;BME280;18103;52.246;8.052;2023-04-29T10:17:06;100649.41;;;14.25;71.49
31483;BME280;18103;52.246;8.052;2023-04-29T10:22:11;100644.69;;;14.48;70.18
31483;BME280;18103;52.246;8.052;2023-04-29T10:24:41;100640.06;;;14.60;70.29
31483;BME280;18103;52.246;8.052;2023-04-29T10:27:11;100646.78;;;14.54;70.28
31483;BME280;18103;52.246;8.052;2023-04-29T10:29:37;100633.97;;;14.69;71.05
31483;BME280;18103;52.246;8.052;2023-04-29T10:32:06;100639.25;;;14.89;69.68
31483;BME280;18103;52.246;8.052;2023-04-29T10:34:36;100649.31;;;14.95;69.62
31483;BME280;18103;52.246;8.052;2023-04-29T10:37:08;100641.34;;;14.85;69.40
31483;BME280;18103;52.246;8.052;2023-04-29T10:39:41;100638.38;;;14.98;68.98
31483;BME280;18103;52.246;8.052;2023-04-29T10:42:19;100634.22;;;15.05;67.85
31483;BME280;18103;52.246;8.052;2023-04-29T10:53:15;100645.59;;;15.45;66.78
31483;BME280;18103;52.246;8.052;2023-04-29T10:55:42;100642.09;;;15.45;65.53
31483;BME280;18103;52.246;8.052;2023-04-29T11:01:17;100645.09;;;15.97;65.37
31483;BME280;18103;52.246;8.052;2023-04-29T11:06:14;100646.56;;;16.37;64.64
31483;BME280;18103;52.246;8.052;2023-04-29T11:08:40;100646.13;;;16.14;64.28
31483;BME280;18103;52.246;8.052;2023-04-29T11:11:10;100648.56;;;16.07;65.38
31483;BME280;18103;52.246;8.052;2023-04-29T11:13:38;100646.22;;;15.95;65.82
31483;BME280;18103;52.246;8.052;2023-04-29T11:16:10;100646.19;;;16.04;65.65
31483;BME280;18103;52.246;8.052;2023-04-29T11:19:05;100646.44;;;15.73;64.74
31483;BME280;18103;52.246;8.052;2023-04-29T11:21:33;100644.94;;;16.27;65.60
31483;BME280;18103;52.246;8.052;2023-04-29T11:24:02;100631.25;;;16.39;64.18
31483;BME280;18103;52.246;8.052;2023-04-29T11:26:28;100637.88;;;16.53;62.75
31483;BME280;18103;52.246;8.052;2023-04-29T11:28:55;100646.63;;;16.28;63.32
31483;BME280;18103;52.246;8.052;2023-04-29T11:31:30;100644.72;;;16.38;62.45
31483;BME280;18103;52.246;8.052;2023-04-29T11:33:58;100637.81;;;15.99;62.66
31483;BME280;18103;52.246;8.052;2023-04-29T11:36:27;100641.59;;;16.24;62.43
31483;BME280;18103;52.246;8.052;2023-04-29T11:39:00;100631.38;;;16.20;61.76
31483;BME280;18103;52.246;8.052;2023-04-29T11:41:26;100642.50;;;16.33;61.71
31483;BME280;18103;52.246;8.052;2023-04-29T11:43:58;100653.44;;;16.58;62.27
31483;BME280;18103;52.246;8.052;2023-04-29T11:46:24;100652.78;;;16.82;61.86
31483;BME280;18103;52.246;8.052;2023-04-29T11:48:52;100650.59;;;16.59;61.65
31483;BME280;18103;52.246;8.052;2023-04-29T11:51:18;100656.69;;;16.52;61.69
31483;BME280;18103;52.246;8.052;2023-04-29T11:53:44;100662.28;;;16.31;61.29
31483;BME280;18103;52.246;8.052;2023-04-29T11:56:09;100660.69;;;15.92;61.85
31483;BME280;18103;52.246;8.052;2023-04-29T11:58:38;100661.78;;;15.62;61.49
31483;BME280;18103;52.246;8.052;2023-04-29T12:01:04;100665.28;;;15.52;61.13
31483;BME280;18103;52.246;8.052;2023-04-29T12:03:32;100660.38;;;15.57;61.21
31483;BME280;18103;52.246;8.052;2023-04-29T12:05:58;100665.63;;;15.87;61.37
31483;BME280;18103;52.246;8.052;2023-04-29T12:08:26;100667.75;;;15.73;60.89
31483;BME280;18103;52.246;8.052;2023-04-29T12:10:57;100672.53;;;15.70;61.60
31483;BME280;18103;52.246;8.052;2023-04-29T12:13:27;100663.13;;;15.76;60.60
31483;BME280;18103;52.246;8.052;2023-04-29T12:15:53;100671.03;;;15.57;61.48
31483;BME280;18103;52.246;8.052;2023-04-29T12:18:22;100674.72;;;15.37;61.99
31483;BME280;18103;52.246;8.052;2023-04-29T12:20:50;100676.25;;;15.39;61.29
31483;BME280;18103;52.246;8.052;2023-04-29T12:23:18;100671.38;;;15.35;61.34
31483;BME280;18103;52.246;8.052;2023-04-29T12:25:50;100672.22;;;15.35;61.85
31483;BME280;18103;52.246;8.052;2023-04-29T12:28:16;100678.16;;;15.10;61.80
31483;BME280;18103;52.246;8.052;2023-04-29T12:30:49;100672.56;;;15.03;61.99
31483;BME280;18103;52.246;8.052;2023-04-29T12:33:27;100685.56;;;14.86;61.68
31483;BME280;18103;52.246;8.052;2023-04-29T12:35:57;100682.75;;;14.88;62.69
31483;BME280;18103;52.246;8.052;2023-04-29T12:38:25;100685.84;;;14.83;62.16
31483;BME280;18103;52.246;8.052;2023-04-29T12:40:55;100681.94;;;14.97;62.76
31483;BME280;18103;52.246;8.052;2023-04-29T12:43:27;100681.06;;;14.97;63.18
31483;BME280;18103;52.246;8.052;2023-04-29T12:45:59;100678.53;;;15.05;62.85
31483;BME280;18103;52.246;8.052;2023-04-29T12:48:33;100680.50;;;15.13;62.61
31483;BME280;18103;52.246;8.052;2023-04-29T12:51:00;100686.38;;;14.97;62.22
31483;BME280;18103;52.246;8.052;2023-04-29T12:53:27;100691.03;;;14.85;61.28
31483;BME280;18103;52.246;8.052;2023-04-29T12:55:56;100685.56;;;14.86;60.94
31483;BME280;18103;52.246;8.052;2023-04-29T12:58:22;100690.03;;;14.96;61.82
31483;BME280;18103;52.246;8.052;2023-04-29T13:00:48;100701.94;;;14.92;61.26
31483;BME280;18103;52.246;8.052;2023-04-29T13:03:14;100696.19;;;14.86;61.90
31483;BME280;18103;52.246;8.052;2023-04-29T13:05:40;100700.69;;;14.86;61.74
31483;BME280;18103;52.246;8.052;2023-04-29T13:08:05;100698.41;;;14.81;61.52
31483;BME280;18103;52.246;8.052;2023-04-29T13:10:34;100698.28;;;14.93;61.65
31483;BME280;18103;52.246;8.052;2023-04-29T13:12:59;100699.13;;;14.93;60.81
31483;BME280;18103;52.246;8.052;2023-04-29T13:15:30;100692.13;;;15.12;62.03
31483;BME280;18103;52.246;8.052;2023-04-29T13:17:57;100697.28;;;15.23;61.89
31483;BME280;18103;52.246;8.052;2023-04-29T13:20:22;100690.19;;;15.04;60.70
31483;BME280;18103;52.246;8.052;2023-04-29T13:22:48;100686.81;;;15.02;60.47
31483;BME280;18103;52.246;8.052;2023-04-29T13:25:13;100688.78;;;15.10;60.41
31483;BME280;18103;52.246;8.052;2023-04-29T13:27:40;100688.47;;;15.22;61.33